Latest Weather Observations for Mount Gellibrand

IDV60801

Issued at 12:04 pm EST Wednesday 26 April 2017 (issued every 30 minutes, with the page automatically refreshed every 10 minutes)

About weather observations | Map of weather stations | Latest weather observations for VIC | Other Formats
Station Details ID: 090035 Name: MOUNT GELLIBRAND Lat: -38.23 Lon: 143.79 Height: 261.0 m
Data from the previous 72 hours. | See also: Recent months at Mount Gellibrand
Date/Time
EST
Temp
°C
App
Temp
°C
Dew
Point
°C
Rel
Hum
%
Delta-T
°C
Wind Press
QNH
hPa
Press
MSL
hPa
Rain since
9am
mm
Dir  Spd
km/h
Gust
km/h
Spd
kts
Gust
kts
26/11:30am 9.9 -0.4 2.7 61 3.1 SW 46 59 25 32 1013.5 1013.2 0.0
26/11:00am 9.8 1.8 4.0 67 2.6 SSW 35 46 19 25 1013.2 1012.9 0.0
26/10:31am 10.2 1.2 4.4 67 2.6 SSW 41 61 22 33 1012.6 1012.3 0.0
26/10:30am 10.2 1.6 4.6 68 2.5 SSW 39 56 21 30 1012.6 1012.3 0.0
26/10:23am 9.9 1.3 4.5 69 2.4 SSW 39 57 21 31 1012.6 1012.3 0.0
26/10:00am 9.3 2.1 6.0 80 1.5 SSW 33 43 18 23 1012.6 1012.3 0.0
26/09:30am 8.2 -1.3 5.1 81 1.4 SSW 44 67 24 36 1012.0 1011.6 0.0
26/09:23am 7.8 -3.9 5.1 83 1.2 SSW 56 74 30 40 1011.5 1011.2 0.0
26/09:14am 8.5 -1.9 4.1 74 1.9 SSW 48 74 26 40 1011.0 1010.7 0.0
26/09:09am 9.4 0.7 4.2 70 2.3 SSW 39 61 21 33 1011.3 1011.0 0.0
26/09:00am 9.3 1.9 4.9 74 2.0 SSW 33 41 18 22 1011.3 1011.0 4.0
26/08:30am 8.5 1.2 5.3 80 1.5 SSW 33 43 18 23 1010.9 1010.6 4.0
26/08:00am 7.6 1.3 5.7 88 0.9 SW 28 35 15 19 1010.3 1010.0 4.0
26/07:30am 7.2 0.9 5.5 89 0.8 SW 28 32 15 17 1009.7 1009.4 4.0
26/07:00am 7.4 0.4 6.0 91 0.6 SW 32 39 17 21 1008.8 1008.4 4.0
26/06:30am 7.6 1.1 6.5 93 0.5 SW 30 35 16 19 1008.0 1007.6 4.0
26/06:00am 7.7 0.9 7.0 95 0.3 SW 32 37 17 20 1007.6 1007.3 4.0
26/05:30am 7.8 2.6 7.4 97 0.2 SW 24 32 13 17 1007.0 1006.7 4.0
26/05:00am 8.0 2.6 7.9 99 0.0 WSW 26 32 14 17 1006.2 1005.9 3.8
26/04:30am 8.2 4.5 7.9 98 0.1 WSW 17 20 9 11 1005.7 1005.3 3.8
26/04:00am 8.2 4.9 7.9 98 0.1 WSW 15 17 8 9 1005.5 1005.1 3.8
26/03:30am 8.2 4.1 7.9 98 0.1 WSW 19 24 10 13 1005.2 1004.8 3.8
26/03:00am 8.2 2.0 7.8 97 0.2 WSW 30 35 16 19 1004.8 1004.4 3.8
26/02:30am 8.4 1.2 7.8 96 0.3 SW 35 43 19 23 1004.3 1003.9 3.4
26/02:00am 8.9 2.5 8.5 97 0.2 SW 32 41 17 22 1004.1 1003.7 3.0
26/01:30am 8.8 -1.1 8.4 97 0.2 WSW 50 61 27 33 1002.7 1002.4 2.8
26/01:10am 9.3 -0.9 8.5 95 0.4 W 52 74 28 40 1002.3 1001.9 2.6
26/01:02am 10.8 2.1 9.9 94 0.5 NW 46 65 25 35 1002.6 1002.3 2.4
26/01:00am 11.2 3.0 10.3 94 0.5 NW 44 57 24 31 1002.2 1001.8 2.4
26/12:30am 11.5 4.3 10.7 95 0.4 NW 39 50 21 27 1002.8 1002.5 2.2
26/12:00am 11.4 5.4 10.9 97 0.3 NW 33 41 18 22 1003.4 1003.1 2.2
 
Date/Time
EST
Temp
°C
App
Temp
°C
Dew
Point
°C
Rel
Hum
%
Delta-T
°C
Wind Press
QNH
hPa
Press
MSL
hPa
Rain since
9am
mm
Dir  Spd
km/h
Gust
km/h
Spd
kts
Gust
kts
25/11:30pm 11.6 4.6 11.1 97 0.3 NW 39 50 21 27 1003.6 1003.3 2.2
25/11:00pm 11.3 3.4 10.8 97 0.3 WNW 43 56 23 30 1003.9 1003.5 2.2
25/10:30pm 11.5 3.7 11.3 99 0.1 WNW 43 57 23 31 1004.3 1003.9 1.8
25/10:00pm 11.6 5.8 11.6 100 0.0 WNW 33 41 18 22 1004.7 1004.3 1.8
25/09:30pm 11.6 6.3 11.4 99 0.1 WNW 30 35 16 19 1005.3 1004.9 1.8
25/09:00pm 11.9 6.2 11.9 100 0.0 WNW 33 43 18 23 1005.5 1005.1 1.8
25/08:30pm 12.1 6.6 11.9 99 0.1 W 32 41 17 22 1005.8 1005.4 1.8
25/08:00pm 12.5 6.9 12.2 98 0.2 W 33 39 18 21 1005.6 1005.2 1.8
25/07:49pm 12.7 7.2 12.4 98 0.2 W 33 41 18 22 1005.6 1005.2 1.8
25/07:30pm 12.9 6.1 11.8 93 0.6 NW 39 54 21 29 1005.2 1004.8 1.0
25/07:25pm 13.3 7.8 11.9 91 0.8 NW 32 50 17 27 1005.4 1005.0 0.4
25/07:00pm 14.1 10.7 10.7 80 1.8 N 19 24 10 13 1005.1 1004.7 0.0
25/06:30pm 14.2 11.9 10.6 79 1.9 NNW 13 13 7 7 1005.3 1004.9 0.0
25/06:00pm 14.0 11.6 10.2 78 2.0 NW 13 15 7 8 1005.5 1005.1 0.0
25/05:30pm 14.7 13.1 10.3 75 2.3 NW 9 11 5 6 1005.6 1005.2 0.0
25/05:00pm 15.9 13.2 10.4 70 3.0 W 15 20 8 11 1006.1 1005.8 0.0
25/04:30pm 16.6 13.7 10.9 69 3.1 WNW 17 22 9 12 1006.3 1006.0 0.0
25/04:00pm 16.8 13.3 10.9 68 3.2 W 20 28 11 15 1006.3 1006.0 0.0
25/03:30pm 15.8 11.8 10.3 70 2.9 W 22 28 12 15 1006.5 1006.2 0.0
25/03:00pm 17.0 15.4 11.5 70 3.0 W 11 17 6 9 1006.5 1006.2 0.0
25/02:30pm 16.3 13.2 11.5 73 2.6 WSW 19 28 10 15 1006.8 1006.5 0.0
25/02:00pm 15.5 12.2 10.9 74 2.5 WSW 19 24 10 13 1007.2 1006.9 0.0
25/01:30pm 15.8 10.7 10.6 71 2.8 WSW 28 35 15 19 1007.4 1007.1 0.0
25/01:00pm 15.1 9.6 10.7 75 2.4 WSW 30 37 16 20 1007.5 1007.2 0.0
25/12:30pm 16.3 12.6 12.7 79 2.0 WSW 24 35 13 19 1007.9 1007.5 0.0
25/12:00pm 15.5 11.4 13.9 90 0.9 WSW 28 35 15 19 1008.3 1007.9 0.0
25/11:30am 14.9 10.8 14.9 100 0.0 WSW 30 35 16 19 1008.6 1008.2 0.0
25/11:00am 14.7 11.3 14.7 100 0.0 WSW 26 35 14 19 1008.8 1008.4 0.0
25/10:30am 13.6 9.4 13.6 100 0.0 WSW 28 33 15 18 1009.0 1008.6 0.0
25/10:00am 13.3 9.8 13.3 100 0.0 WSW 24 30 13 16 1009.1 1008.7 0.0
25/09:30am 13.2 10.0 13.2 100 0.0 WSW 22 26 12 14 1008.8 1008.4 0.0
25/09:00am 13.2 10.0 13.2 100 0.0 WSW 22 30 12 16 1008.8 1008.4 38.8
25/08:30am 13.2 10.4 13.2 100 0.0 WSW 20 28 11 15 1008.6 1008.2 38.8
25/08:00am 13.1 9.5 13.1 100 0.0 WSW 24 30 13 16 1008.4 1008.0 38.8
25/07:30am 13.2 10.0 13.2 100 0.0 WSW 22 26 12 14 1008.0 1007.6 38.8
25/07:00am 13.3 9.8 13.3 100 0.0 WSW 24 32 13 17 1007.6 1007.3 38.8
25/06:30am 13.4 9.9 13.4 100 0.0 WSW 24 30 13 16 1007.5 1007.2 38.8
25/06:00am 13.4 9.5 13.4 100 0.0 WSW 26 30 14 16 1007.4 1007.1 38.6
25/05:30am 13.6 10.2 13.6 100 0.0 WSW 24 30 13 16 1007.3 1007.0 38.0
25/05:00am 13.6 11.5 13.6 100 0.0 SW 17 22 9 12 1007.2 1006.9 37.0
25/04:30am 13.9 14.4 13.9 100 0.0 SW 4 7 2 4 1007.2 1006.9 36.6
25/04:00am 13.9 14.0 13.9 100 0.0 ENE 6 9 3 5 1007.1 1006.8 35.4
25/03:30am 13.9 13.4 13.9 100 0.0 E 9 11 5 6 1007.3 1007.0 34.0
25/03:00am 13.9 12.3 13.9 100 0.0 ENE 15 17 8 9 1007.7 1007.4 33.6
25/02:30am 13.7 11.6 13.7 100 0.0 ENE 17 22 9 12 1008.3 1007.9 33.4
25/02:00am 13.7 11.3 13.7 100 0.0 ENE 19 20 10 11 1008.7 1008.3 33.4
25/01:30am 13.6 11.9 13.6 100 0.0 E 15 17 8 9 1009.2 1008.9 33.2
25/01:00am 13.5 11.4 13.5 100 0.0 ESE 17 22 9 12 1009.6 1009.3 33.2
25/12:30am 13.7 11.6 13.7 100 0.0 ESE 17 24 9 13 1009.9 1009.6 33.0
25/12:00am 13.9 11.5 13.9 100 0.0 ESE 19 22 10 12 1010.4 1010.1 32.6
 
Date/Time
EST
Temp
°C
App
Temp
°C
Dew
Point
°C
Rel
Hum
%
Delta-T
°C
Wind Press
QNH
hPa
Press
MSL
hPa
Rain since
9am
mm
Dir  Spd
km/h
Gust
km/h
Spd
kts
Gust
kts
24/11:30pm 14.1 12.6 14.1 100 0.0 E 15 19 8 10 1010.9 1010.6 32.6
24/11:00pm 14.1 12.6 14.1 100 0.0 ESE 15 20 8 11 1011.5 1011.2 32.2
24/10:30pm 14.1 12.6 14.1 100 0.0 SE 15 20 8 11 1012.3 1011.9 30.6
24/10:00pm 13.9 11.5 13.9 100 0.0 SSE 19 28 10 15 1012.5 1012.2 27.4
24/09:30pm 13.8 10.1 13.8 100 0.0 SSW 26 32 14 17 1012.6 1012.3 20.2
24/09:00pm 14.0 12.0 14.0 100 0.0 SW 17 20 9 11 1013.3 1013.0 15.2
24/08:30pm 14.6 12.5 14.6 100 0.0 ESE 19 24 10 13 1012.9 1012.6 11.8
24/08:00pm 14.5 12.3 14.5 100 0.0 E 19 24 10 13 1013.1 1012.8 9.2
24/07:30pm 14.7 12.0 14.7 100 0.0 E 22 28 12 15 1013.4 1013.1 9.2
24/07:00pm 14.9 12.9 14.9 100 0.0 ESE 19 22 10 12 1013.7 1013.4 9.2
24/06:30pm 14.7 13.4 14.7 100 0.0 SE 15 17 8 9 1013.7 1013.4 9.0
24/06:00pm 14.5 12.7 14.5 100 0.0 SSE 17 20 9 11 1013.6 1013.3 9.0
24/05:30pm 14.9 12.2 14.7 99 0.1 SSW 22 26 12 14 1014.3 1014.0 7.2
24/05:00pm 15.8 13.7 15.3 97 0.3 SSW 20 26 11 14 1014.5 1014.2 2.4
24/04:30pm 16.4 14.7 14.8 90 0.9 SSW 17 20 9 11 1014.1 1013.8 0.4
24/04:00pm 17.1 15.8 14.9 87 1.3 S 15 17 8 9 1014.8 1014.5 0.0
24/03:30pm 17.4 16.2 15.0 86 1.4 S 15 17 8 9 1014.8 1014.5 0.0
24/03:00pm 18.0 18.3 14.9 82 1.8 S 7 13 4 7 1015.2 1014.9 0.0
24/02:30pm 18.4 18.7 14.9 80 2.1 SSW 7 9 4 5 1015.6 1015.3 0.0
24/02:00pm 18.5 18.9 14.8 79 2.2 SW 6 9 3 5 1016.1 1015.8 0.0
24/01:30pm 18.2 18.5 14.9 81 1.9 WSW 7 11 4 6 1016.6 1016.3 0.0
24/01:00pm 18.2 18.7 14.9 81 1.9 WNW 6 9 3 5 1016.9 1016.6 0.0
24/12:30pm 18.0 17.5 14.9 82 1.8 NW 11 15 6 8 1017.6 1017.3 0.0
24/12:00pm 17.0 17.6 15.9 93 0.7 N 7 11 4 6 1018.2 1017.9 0.0
24/11:30am 16.9 17.8 16.7 99 0.1 N 7 11 4 6 1018.6 1018.3 0.0
24/11:00am 16.1 17.0 16.1 100 0.0 NNE 6 9 3 5 1019.0 1018.8 0.0
24/10:30am 15.2 15.2 15.2 100 0.0 NE 9 13 5 7 1019.4 1019.2 0.0
24/10:00am 14.6 13.6 14.6 100 0.0 NE 13 17 7 9 1019.7 1019.5 0.0
24/09:30am 14.2 13.1 14.2 100 0.0 NE 13 15 7 8 1020.2 1019.9 0.0
24/09:00am 14.2 13.1 14.2 100 0.0 NE 13 17 7 9 1020.6 1020.3 6.0
24/08:30am 13.7 12.4 13.7 100 0.0 ENE 13 17 7 9 1020.6 1020.3 6.0
24/08:00am 13.2 12.1 13.2 100 0.0 ENE 11 15 6 8 1020.7 1020.4 6.0
24/07:30am 13.2 11.7 13.2 100 0.0 ENE 13 15 7 8 1020.7 1020.4 6.0
24/07:00am 13.3 12.3 13.3 100 0.0 E 11 15 6 8 1020.6 1020.3 6.0
24/06:30am 13.2 12.1 13.2 100 0.0 E 11 15 6 8 1020.6 1020.3 6.0
24/06:00am 12.9 11.7 12.9 100 0.0 E 11 13 6 7 1020.7 1020.4 6.0
24/05:30am 12.6 11.7 12.6 100 0.0 ESE 9 11 5 6 1020.7 1020.4 6.0
24/05:00am 12.9 12.7 12.9 100 0.0 ESE 6 7 3 4 1020.8 1020.5 6.0
24/04:30am 13.2 12.9 13.2 100 0.0 E 7 9 4 5 1020.8 1020.5 6.0
24/04:00am 12.9 12.7 12.9 100 0.0 SSE 6 9 3 5 1021.0 1020.7 6.0
24/03:30am 13.0 12.2 13.0 100 0.0 SSE 9 9 5 5 1021.2 1020.9 6.0
24/03:00am 12.8 12.3 12.8 100 0.0 S 7 9 4 5 1021.5 1021.2 6.0
24/02:30am 12.9 12.1 12.9 100 0.0 S 9 13 5 7 1021.8 1021.5 6.0
24/02:00am 12.9 12.5 12.9 100 0.0 SSE 7 9 4 5 1022.0 1021.7 6.0
24/01:30am 12.9 12.1 12.9 100 0.0 S 9 13 5 7 1022.1 1021.8 6.0
24/01:00am 12.8 11.6 12.8 100 0.0 S 11 13 6 7 1022.2 1021.9 6.0
24/12:30am 13.1 12.4 13.1 100 0.0 SSE 9 11 5 6 1022.5 1022.3 6.0
24/12:00am 13.3 13.0 13.3 100 0.0 ESE 7 9 4 5 1022.7 1022.5 6.0
 
Date/Time
EST
Temp
°C
App
Temp
°C
Dew
Point
°C
Rel
Hum
%
Delta-T
°C
Wind Press
QNH
hPa
Press
MSL
hPa
Rain since
9am
mm
Dir  Spd
km/h
Gust
km/h
Spd
kts
Gust
kts
23/11:30pm 13.4 12.4 13.4 100 0.0 ESE 11 13 6 7 1022.9 1022.7 6.0
23/11:00pm 13.1 10.8 13.1 100 0.0 ESE 17 19 9 10 1023.1 1022.9 6.0
23/10:30pm 13.2 11.0 13.2 100 0.0 ENE 17 20 9 11 1023.4 1023.2 6.0
23/10:00pm 13.4 11.6 13.4 100 0.0 NE 15 19 8 10 1023.6 1023.4 6.0
23/09:30pm 13.7 12.4 13.7 100 0.0 NE 13 17 7 9 1023.7 1023.5 6.0
23/09:00pm 13.1 12.3 12.9 99 0.1 NNE 9 13 5 7 1023.9 1023.6 6.0
23/08:30pm 13.1 13.2 12.8 98 0.2 SSE 4 6 2 3 1024.0 1023.7 6.0
23/08:00pm 13.2 13.4 12.9 98 0.2 S 4 7 2 4 1023.7 1023.5 6.0
23/07:30pm 13.3 10.6 12.8 97 0.3 S 19 22 10 12 1023.4 1023.2 6.0
23/07:00pm 14.3 12.7 13.8 97 0.3 S 15 17 8 9 1023.3 1023.1 6.0
23/06:30pm 14.5 13.7 14.0 97 0.3 SSE 11 13 6 7 1023.3 1023.1 6.0
23/06:00pm 14.7 14.3 14.1 96 0.3 SE 9 11 5 6 1023.0 1022.8 6.0
23/05:30pm 15.2 13.1 14.6 96 0.3 S 19 20 10 11 1022.9 1022.7 6.0
23/05:00pm 15.2 12.9 14.7 97 0.3 S 20 26 11 14 1022.7 1022.5 6.0
23/04:30pm 15.1 13.4 14.8 98 0.2 S 17 22 9 12 1022.8 1022.6 5.8
23/04:00pm 15.5 14.5 14.7 95 0.5 SSE 13 15 7 8 1023.0 1022.8 1.0
23/03:30pm 15.5 14.4 14.4 93 0.6 SSE 13 17 7 9 1022.9 1022.7 0.2
23/03:00pm 16.4 14.6 14.4 88 1.2 S 17 19 9 10 1022.7 1022.5 0.0
23/02:30pm 17.2 16.3 14.8 86 1.4 SSE 13 15 7 8 1022.7 1022.5 0.0
23/02:00pm 16.9 15.8 15.2 90 1.0 SSW 15 19 8 10 1022.9 1022.7 0.0
23/01:30pm 16.5 14.9 15.0 91 0.9 SSW 17 22 9 12 1022.9 1022.7 0.0
23/01:00pm 18.8 17.9 14.9 78 2.3 SW 13 20 7 11 1023.2 1023.0 0.0
23/12:30pm 17.9 17.4 14.8 82 1.8 SW 11 17 6 9 1023.6 1023.4 0.0

Other Formats:

Comma delimited format used in spreadsheet applications
http://www.bom.gov.au/fwo/IDV60801/IDV60801.95845.axf

JavaScript Object Notation format (JSON) in row-major order
http://www.bom.gov.au/fwo/IDV60801/IDV60801.95845.json